Time;durP1;ratioP1;P1;durP2;ratioP2;P2;SDS_P1;SDS_P2;PMS_P1;PMS_P2;Temp;Humidity;BMP_temperature;BMP_pressure;BME280_temperature;BME280_humidity;BME280_pressure;Samples;Min_cycle;Max_cycle;Signal;HPM_P1;HPM_P2
2020/12/22 05:01:08;;;;;;;0.40;0.40;;;12.60;99.90;;;;;;5634897;23;20482;-62
2020/12/22 05:03:35;;;;;;;0.40;0.40;;;12.60;99.90;;;;;;4977434;28;20451;-61
2020/12/22 05:06:01;;;;;;;0.40;0.40;;;12.60;99.90;;;;;;4977426;28;20482;-61
2020/12/22 05:08:27;;;;;;;0.50;0.50;;;12.60;99.90;;;;;;4977189;28;20457;-61
2020/12/22 05:10:54;;;;;;;0.90;0.30;;;12.60;99.90;;;;;;4977025;28;21000;-62
2020/12/22 05:13:22;;;;;;;0.60;0.60;;;12.70;99.90;;;;;;4977357;28;20454;-62
2020/12/22 05:15:50;;;;;;;1.13;0.43;;;12.70;99.90;;;;;;4977427;28;20478;-61
2020/12/22 05:18:20;;;;;;;0.40;0.40;;;12.70;99.90;;;;;;4977210;28;20531;-62
2020/12/22 05:20:48;;;;;;;0.50;0.50;;;12.70;99.90;;;;;;4977281;28;20475;-62
2020/12/22 05:23:16;;;;;;;0.40;0.40;;;12.70;99.90;;;;;;4977164;28;20454;-61
2020/12/22 05:25:43;;;;;;;0.60;0.50;;;12.70;99.90;;;;;;4976925;28;20462;-61
2020/12/22 05:28:12;;;;;;;0.30;0.30;;;12.70;99.90;;;;;;4977050;28;20864;-62
2020/12/22 05:30:38;;;;;;;0.63;0.60;;;12.70;99.90;;;;;;4977002;28;20475;-61
2020/12/22 05:33:05;;;;;;;0.70;0.70;;;12.80;99.90;;;;;;4976380;28;21012;-62
2020/12/22 05:35:40;;;;;;;0.50;0.50;;;12.80;99.90;;;;;;4976458;28;21016;-63
2020/12/22 05:38:07;;;;;;;0.87;0.60;;;12.80;99.90;;;;;;4977074;28;20532;-63
2020/12/22 05:40:33;;;;;;;0.67;0.67;;;12.80;99.90;;;;;;4978059;28;20481;-62
2020/12/22 05:43:00;;;;;;;1.57;0.70;;;12.90;99.90;;;;;;4977408;28;21011;-62
2020/12/22 05:45:31;;;;;;;0.47;0.47;;;12.90;99.90;;;;;;4977446;28;20455;-62
2020/12/22 05:47:57;;;;;;;0.40;0.40;;;12.90;99.90;;;;;;4976749;28;20856;-62
2020/12/22 05:50:24;;;;;;;0.40;0.33;;;12.90;99.90;;;;;;4976357;28;20469;-63
2020/12/22 05:52:53;;;;;;;0.50;0.50;;;12.90;99.90;;;;;;4976362;28;20439;-63
2020/12/22 05:55:26;;;;;;;0.70;0.50;;;12.90;99.90;;;;;;4976638;28;20459;-62
2020/12/22 05:58:06;;;;;;;0.63;0.63;;;13.00;99.90;;;;;;4976497;28;20499;-63
2020/12/22 06:00:32;;;;;;;0.60;0.60;;;13.00;99.90;;;;;;4976345;28;20486;-62
2020/12/22 06:03:06;;;;;;;0.50;0.50;;;13.00;99.90;;;;;;4975889;28;20965;-63
2020/12/22 06:05:36;;;;;;;0.80;0.60;;;12.90;99.90;;;;;;4976555;28;20496;-63
2020/12/22 06:08:04;;;;;;;1.13;0.40;;;13.00;99.90;;;;;;4976348;28;20514;-62
2020/12/22 06:10:31;;;;;;;0.43;0.43;;;12.90;99.90;;;;;;4976325;28;20482;-62
2020/12/22 06:12:59;;;;;;;0.50;0.50;;;12.90;99.90;;;;;;4976262;28;20454;-63
2020/12/22 06:15:26;;;;;;;0.40;0.40;;;12.90;99.90;;;;;;4976144;28;20864;-63
2020/12/22 06:17:52;;;;;;;0.97;0.50;;;12.90;99.90;;;;;;4976099;28;20463;-65
2020/12/22 06:20:21;;;;;;;0.40;0.40;;;13.00;99.90;;;;;;4975965;28;20821;-63
2020/12/22 06:22:48;;;;;;;1.40;0.50;;;13.00;99.90;;;;;;4976008;28;21000;-63
2020/12/22 06:25:19;;;;;;;0.60;0.60;;;12.90;99.90;;;;;;4975652;28;20945;-64
2020/12/22 06:27:45;;;;;;;0.70;0.67;;;12.90;99.90;;;;;;4976131;28;20845;-62
2020/12/22 06:30:14;;;;;;;0.67;0.67;;;13.00;99.90;;;;;;4975534;28;21047;-61
2020/12/22 06:32:42;;;;;;;0.47;0.47;;;13.00;99.90;;;;;;4975913;28;20439;-63
2020/12/22 06:35:27;;;;;;;0.60;0.50;;;13.00;99.90;;;;;;4975854;28;20459;-64
2020/12/22 06:37:54;;;;;;;1.10;0.50;;;13.00;99.90;;;;;;4975714;28;20850;-64
2020/12/22 06:40:54;;;;;;;0.47;0.47;;;13.00;99.90;;;;;;4975488;28;20458;-62
2020/12/22 06:43:40;;;;;;;1.07;0.70;;;12.90;99.90;;;;;;4975745;28;20434;-62
2020/12/22 06:46:10;;;;;;;1.10;0.80;;;12.90;99.90;;;;;;4975680;28;20447;-62
2020/12/22 06:48:44;;;;;;;0.50;0.50;;;13.00;99.90;;;;;;4975596;28;20439;-62
2020/12/22 06:51:23;;;;;;;0.83;0.70;;;13.00;99.90;;;;;;4975748;28;20525;-63
2020/12/22 06:53:50;;;;;;;0.50;0.50;;;13.00;99.90;;;;;;4975527;28;20458;-61
2020/12/22 06:56:41;;;;;;;0.73;0.40;;;13.00;99.90;;;;;;4975142;28;20925;-62
2020/12/22 06:59:09;;;;;;;1.90;0.50;;;13.00;99.90;;;;;;4974894;28;20913;-62
2020/12/22 07:01:36;;;;;;;0.40;0.40;;;13.00;99.90;;;;;;4974506;28;20493;-62
2020/12/22 07:04:19;;;;;;;0.47;0.47;;;13.10;99.90;;;;;;4975021;28;20844;-62
2020/12/22 07:06:50;;;;;;;0.50;0.50;;;13.10;99.90;;;;;;4975121;28;20454;-65
2020/12/22 07:09:18;;;;;;;0.60;0.60;;;13.10;99.90;;;;;;4975472;28;20457;-64
2020/12/22 07:11:46;;;;;;;0.47;0.47;;;13.10;99.90;;;;;;4974294;28;20502;-64
2020/12/22 07:14:14;;;;;;;0.50;0.50;;;13.10;99.90;;;;;;4975183;28;20434;-63
2020/12/22 07:17:05;;;;;;;0.47;0.43;;;13.20;99.90;;;;;;4974993;28;20531;-64
2020/12/22 07:19:33;;;;;;;1.03;0.50;;;13.20;99.90;;;;;;4965376;28;20462;-63
2020/12/22 07:22:00;;;;;;;0.50;0.50;;;13.10;99.90;;;;;;4975102;28;20478;-64
2020/12/22 07:24:27;;;;;;;0.53;0.53;;;13.10;99.90;;;;;;4975265;28;20451;-62
2020/12/22 07:26:54;;;;;;;0.53;0.53;;;13.10;99.90;;;;;;4974946;28;20910;-62
2020/12/22 07:29:21;;;;;;;0.50;0.40;;;13.20;99.90;;;;;;4975068;28;20980;-63
2020/12/22 07:31:48;;;;;;;0.50;0.50;;;13.20;99.90;;;;;;4974890;28;20471;-64
2020/12/22 07:34:15;;;;;;;0.70;0.60;;;13.20;99.90;;;;;;4975135;28;20447;-63
2020/12/22 07:36:42;;;;;;;0.60;0.60;;;13.20;99.90;;;;;;4975220;28;20451;-63
2020/12/22 07:39:13;;;;;;;1.90;0.73;;;13.20;99.90;;;;;;4975227;28;20455;-61
2020/12/22 07:41:39;;;;;;;0.50;0.50;;;13.20;99.90;;;;;;4974508;28;20490;-63
2020/12/22 07:44:11;;;;;;;0.87;0.53;;;13.30;99.90;;;;;;4974819;28;20454;-65
2020/12/22 07:46:38;;;;;;;0.50;0.50;;;13.20;99.90;;;;;;4974971;28;20442;-64
2020/12/22 07:49:06;;;;;;;0.70;0.60;;;13.30;99.90;;;;;;4974648;28;20462;-64
2020/12/22 07:51:33;;;;;;;0.60;0.60;;;13.30;99.90;;;;;;4974816;28;20893;-64
2020/12/22 07:54:00;;;;;;;0.80;0.60;;;13.20;99.90;;;;;;4974712;28;20514;-64
2020/12/22 07:56:27;;;;;;;1.23;0.80;;;13.20;99.90;;;;;;4974876;28;20459;-65
2020/12/22 07:58:54;;;;;;;1.57;0.70;;;13.30;99.90;;;;;;4974547;28;20458;-65
2020/12/22 08:01:21;;;;;;;2.43;1.67;;;13.30;99.90;;;;;;4974328;28;21028;-64
2020/12/22 08:03:47;;;;;;;0.50;0.50;;;13.20;99.90;;;;;;4974698;28;20461;-65
2020/12/22 08:06:13;;;;;;;0.80;0.77;;;13.20;99.90;;;;;;4974748;28;20454;-64
2020/12/22 08:08:40;;;;;;;0.60;0.60;;;13.30;99.90;;;;;;4974703;28;20455;-65
2020/12/22 08:11:06;;;;;;;0.47;0.40;;;13.30;99.90;;;;;;4974214;28;20993;-64
2020/12/22 08:13:37;;;;;;;0.80;0.60;;;13.30;99.90;;;;;;4974465;28;20454;-64
2020/12/22 08:16:04;;;;;;;0.70;0.70;;;13.40;99.90;;;;;;4974856;28;20439;-64
2020/12/22 08:18:34;;;;;;;0.80;0.80;;;13.40;99.90;;;;;;4974205;28;20966;-65
2020/12/22 08:21:01;;;;;;;0.53;0.53;;;13.50;99.90;;;;;;4974707;28;20475;-64
2020/12/22 08:23:28;;;;;;;1.07;0.50;;;13.50;99.90;;;;;;4976340;28;20478;-65
2020/12/22 08:25:55;;;;;;;0.50;0.50;;;13.40;99.90;;;;;;4979661;28;20458;-64
2020/12/22 08:28:23;;;;;;;1.23;0.43;;;13.50;99.90;;;;;;4978552;28;20973;-63
2020/12/22 08:30:50;;;;;;;0.40;0.40;;;13.50;99.90;;;;;;4978445;28;20514;-63
2020/12/22 08:33:20;;;;;;;0.60;0.43;;;13.60;99.90;;;;;;4979030;28;20454;-64
2020/12/22 08:35:49;;;;;;;0.60;0.40;;;13.60;99.90;;;;;;4978472;28;20459;-63
2020/12/22 08:38:23;;;;;;;0.60;0.60;;;13.70;99.90;;;;;;4978074;28;20458;-63
2020/12/22 08:40:51;;;;;;;0.60;0.60;;;13.70;99.90;;;;;;4978278;28;20482;-62
2020/12/22 08:43:20;;;;;;;1.07;0.70;;;13.80;99.90;;;;;;4977793;28;20501;-62
2020/12/22 08:45:46;;;;;;;1.20;0.60;;;13.70;99.90;;;;;;4977656;28;20481;-64
2020/12/22 08:48:12;;;;;;;0.60;0.60;;;13.80;99.90;;;;;;4977710;28;20455;-62
2020/12/22 08:51:00;;;;;;;0.83;0.60;;;13.90;99.90;;;;;;4977598;28;20813;-62
2020/12/22 08:53:26;;;;;;;0.70;0.70;;;13.80;99.90;;;;;;4974483;28;20454;-63
2020/12/22 08:56:05;;;;;;;0.67;0.67;;;13.80;99.90;;;;;;4977445;28;20454;-62
2020/12/22 08:58:31;;;;;;;0.57;0.57;;;13.90;99.90;;;;;;4977838;28;20621;-62
2020/12/22 09:00:58;;;;;;;0.50;0.50;;;13.90;99.90;;;;;;4977570;28;20478;-64
2020/12/22 09:03:24;;;;;;;1.00;0.50;;;13.90;99.90;;;;;;4977935;28;20485;-64
2020/12/22 09:05:50;;;;;;;2.90;0.60;;;13.90;99.90;;;;;;4977368;28;20458;-64
2020/12/22 09:08:17;;;;;;;0.67;0.50;;;14.10;99.90;;;;;;4976914;28;21012;-64
2020/12/22 09:10:47;;;;;;;0.83;0.60;;;14.00;99.90;;;;;;4977320;28;20483;-64
2020/12/22 09:13:15;;;;;;;0.60;0.60;;;14.00;99.90;;;;;;4978460;28;20481;-62
2020/12/22 09:15:53;;;;;;;0.40;0.40;;;13.90;99.90;;;;;;4977283;28;20817;-62
2020/12/22 09:18:19;;;;;;;0.40;0.40;;;13.90;99.90;;;;;;4977418;28;20481;-63
2020/12/22 09:21:01;;;;;;;0.93;0.60;;;13.90;99.90;;;;;;4977268;28;20482;-62
2020/12/22 09:23:28;;;;;;;0.60;0.60;;;13.80;99.90;;;;;;4977606;28;20467;-63
2020/12/22 09:25:54;;;;;;;0.40;0.40;;;13.90;99.90;;;;;;4976946;28;20461;-64
2020/12/22 09:28:20;;;;;;;0.80;0.50;;;13.90;99.90;;;;;;4977046;28;20474;-64
2020/12/22 09:30:46;;;;;;;0.50;0.50;;;14.00;99.90;;;;;;4976920;28;20478;-64
2020/12/22 09:33:13;;;;;;;0.40;0.40;;;14.00;99.90;;;;;;4976723;28;20463;-64
2020/12/22 09:35:39;;;;;;;3.20;0.50;;;14.00;99.90;;;;;;4975888;28;20474;-64
2020/12/22 09:38:05;;;;;;;0.50;0.50;;;13.90;99.90;;;;;;4977008;28;20458;-64
2020/12/22 09:40:32;;;;;;;0.50;0.50;;;13.90;99.90;;;;;;4976885;28;20455;-64
2020/12/22 09:42:58;;;;;;;0.70;0.70;;;13.90;99.90;;;;;;4976630;28;20478;-64
2020/12/22 09:45:24;;;;;;;0.50;0.50;;;13.80;99.90;;;;;;4976954;28;20454;-65
2020/12/22 09:47:50;;;;;;;0.60;0.50;;;13.80;99.90;;;;;;4976752;28;20466;-65
2020/12/22 09:50:18;;;;;;;0.80;0.70;;;13.80;99.90;;;;;;4976585;28;20465;-65
2020/12/22 09:52:44;;;;;;;0.50;0.50;;;13.70;99.90;;;;;;4976235;28;20949;-65
2020/12/22 09:55:10;;;;;;;0.70;0.70;;;13.70;99.90;;;;;;4976176;28;20497;-64
2020/12/22 09:57:37;;;;;;;0.40;0.40;;;13.70;99.90;;;;;;4976582;28;20465;-65
2020/12/22 10:00:05;;;;;;;1.27;0.50;;;13.60;99.90;;;;;;4976162;28;20953;-62
2020/12/22 10:02:35;;;;;;;1.13;0.50;;;13.60;99.90;;;;;;4976753;28;20519;-64
2020/12/22 10:05:05;;;;;;;1.87;0.60;;;13.60;99.90;;;;;;4977628;28;20477;-62
2020/12/22 10:07:31;;;;;;;1.73;0.63;;;13.60;99.90;;;;;;4977225;28;20458;-62
2020/12/22 10:09:58;;;;;;;0.70;0.60;;;13.70;99.90;;;;;;4976660;28;20462;-64
2020/12/22 10:12:24;;;;;;;0.50;0.50;;;13.70;99.90;;;;;;4975967;28;20478;-65
2020/12/22 10:14:51;;;;;;;1.23;0.50;;;13.70;99.90;;;;;;4976179;28;21011;-63
2020/12/22 10:17:17;;;;;;;0.80;0.60;;;13.70;99.90;;;;;;4976138;28;20458;-63
2020/12/22 10:19:43;;;;;;;1.13;0.50;;;13.80;99.90;;;;;;4976082;28;20462;-63
2020/12/22 10:24:41;;;;;;;2.07;0.50;;;13.90;99.90;;;;;;4939328;29;20479;-62
2020/12/22 10:27:07;;;;;;;1.13;0.50;;;14.10;99.90;;;;;;4938997;29;20457;-62
2020/12/22 10:29:33;;;;;;;0.60;0.60;;;14.10;99.90;;;;;;4938189;29;20444;-62
2020/12/22 10:32:00;;;;;;;0.50;0.50;;;14.10;99.90;;;;;;4938463;29;20437;-62
2020/12/22 10:34:26;;;;;;;0.97;0.70;;;14.20;99.90;;;;;;4937741;29;20473;-62
2020/12/22 10:36:52;;;;;;;0.70;0.70;;;14.30;99.90;;;;;;4938264;29;20491;-62
2020/12/22 10:39:18;;;;;;;1.27;0.60;;;14.30;99.90;;;;;;4937961;29;20460;-62
2020/12/22 10:41:45;;;;;;;0.43;0.43;;;14.30;99.90;;;;;;4937349;29;20487;-62
2020/12/22 10:44:11;;;;;;;0.53;0.53;;;14.30;99.90;;;;;;4938280;29;20597;-62
2020/12/22 10:46:37;;;;;;;0.40;0.40;;;14.30;99.90;;;;;;4937597;29;20934;-63
2020/12/22 10:49:04;;;;;;;1.37;0.60;;;14.20;99.90;;;;;;4938779;29;20468;-62
2020/12/22 10:51:31;;;;;;;0.50;0.50;;;14.30;99.90;;;;;;4940302;29;20460;-64
2020/12/22 10:53:57;;;;;;;0.50;0.50;;;14.30;99.90;;;;;;4938883;29;20484;-63
2020/12/22 10:56:23;;;;;;;0.50;0.50;;;14.30;99.90;;;;;;4938009;29;20456;-64
2020/12/22 10:58:50;;;;;;;1.03;0.50;;;14.20;99.90;;;;;;4937805;29;20467;-64
2020/12/22 11:01:16;;;;;;;0.60;0.60;;;14.20;99.90;;;;;;4938092;29;20452;-64
2020/12/22 11:03:42;;;;;;;0.90;0.60;;;14.20;99.90;;;;;;4938853;29;20488;-63
2020/12/22 11:06:19;;;;;;;2.13;1.13;;;14.20;99.90;;;;;;4937845;29;20816;-62
2020/12/22 11:08:46;;;;;;;0.57;0.57;;;14.20;99.90;;;;;;4937611;29;20463;-62
2020/12/22 11:11:12;;;;;;;0.57;0.57;;;14.10;99.90;;;;;;4937681;29;20523;-63
2020/12/22 11:13:39;;;;;;;0.40;0.40;;;14.20;99.90;;;;;;4937133;29;20476;-63
2020/12/22 11:16:07;;;;;;;1.50;1.50;;;14.30;99.90;;;;;;4937716;29;20482;-63
2020/12/22 11:18:33;;;;;;;1.53;0.60;;;14.30;99.90;;;;;;4937014;29;20562;-64
2020/12/22 11:20:59;;;;;;;2.70;2.50;;;14.30;99.90;;;;;;4937579;29;20463;-63
2020/12/22 11:23:26;;;;;;;0.70;0.50;;;14.30;99.90;;;;;;4938109;29;20524;-62
2020/12/22 11:25:52;;;;;;;0.50;0.50;;;14.40;99.90;;;;;;4936851;29;20967;-63
2020/12/22 11:28:19;;;;;;;0.60;0.60;;;14.20;99.90;;;;;;4938562;29;20460;-63
2020/12/22 11:30:45;;;;;;;0.60;0.60;;;14.30;99.90;;;;;;4937087;29;20453;-63
2020/12/22 11:33:11;;;;;;;0.70;0.70;;;14.30;99.90;;;;;;4937123;29;20476;-63
2020/12/22 11:35:37;;;;;;;0.50;0.50;;;14.40;99.90;;;;;;4936780;29;20467;-62
2020/12/22 11:38:03;;;;;;;1.07;0.40;;;14.50;99.90;;;;;;4936504;29;20916;-63
2020/12/22 11:40:30;;;;;;;0.60;0.60;;;14.50;99.90;;;;;;4936808;29;20455;-61
2020/12/22 11:42:57;;;;;;;0.50;0.50;;;14.50;99.90;;;;;;4936737;29;20998;-63
2020/12/22 11:45:23;;;;;;;0.43;0.43;;;14.50;99.90;;;;;;4937353;29;20447;-63
2020/12/22 11:47:49;;;;;;;0.50;0.50;;;14.60;99.90;;;;;;4937258;29;20452;-63
2020/12/22 11:50:15;;;;;;;0.50;0.50;;;14.60;99.90;;;;;;4936989;29;20467;-64
2020/12/22 11:52:42;;;;;;;0.50;0.50;;;14.60;99.90;;;;;;4937678;29;20512;-63
2020/12/22 11:55:08;;;;;;;1.53;0.50;;;14.60;99.90;;;;;;4938226;29;20485;-64
2020/12/22 11:57:35;;;;;;;0.50;0.50;;;14.70;99.90;;;;;;4938803;29;20978;-64
2020/12/22 12:00:01;;;;;;;0.80;0.60;;;14.70;99.90;;;;;;4942136;29;20923;-63
2020/12/22 12:02:27;;;;;;;1.23;0.70;;;14.60;99.90;;;;;;4941693;29;20485;-64
2020/12/22 12:04:54;;;;;;;0.50;0.50;;;14.50;99.90;;;;;;4944902;29;20456;-64
2020/12/22 12:07:20;;;;;;;0.87;0.40;;;14.50;99.90;;;;;;4943045;29;20854;-63
2020/12/22 12:09:47;;;;;;;0.60;0.60;;;14.50;99.90;;;;;;4941788;29;20464;-63
2020/12/22 12:12:13;;;;;;;0.50;0.50;;;14.50;99.90;;;;;;4941751;29;20495;-63
2020/12/22 12:14:40;;;;;;;0.47;0.40;;;14.60;99.90;;;;;;4941735;29;20809;-64
2020/12/22 12:17:06;;;;;;;0.70;0.60;;;14.50;99.90;;;;;;4942194;29;20463;-64
2020/12/22 12:19:33;;;;;;;0.50;0.50;;;14.50;99.90;;;;;;4940606;29;20520;-63
2020/12/22 12:21:59;;;;;;;0.60;0.60;;;14.60;99.90;;;;;;4940016;29;20504;-63
2020/12/22 12:24:25;;;;;;;0.60;0.60;;;14.60;99.90;;;;;;4940120;29;20491;-62
2020/12/22 12:26:52;;;;;;;0.63;0.63;;;14.60;99.90;;;;;;4940553;29;20467;-63
2020/12/22 12:29:18;;;;;;;0.77;0.67;;;14.60;99.90;;;;;;4940811;29;20468;-62
2020/12/22 12:31:47;;;;;;;0.57;0.57;;;14.70;99.90;;;;;;4940579;29;20456;-63
2020/12/22 12:34:13;;;;;;;0.50;0.50;;;14.60;99.90;;;;;;4940621;29;20975;-63
2020/12/22 12:36:39;;;;;;;0.63;0.63;;;14.60;99.90;;;;;;4940857;29;20472;-62
2020/12/22 12:39:06;;;;;;;0.67;0.67;;;14.60;99.90;;;;;;4941084;29;20562;-63
2020/12/22 12:41:32;;;;;;;0.70;0.70;;;14.60;99.90;;;;;;4940164;29;20499;-62
2020/12/22 12:43:58;;;;;;;3.50;3.40;;;14.60;99.90;;;;;;4940244;29;20484;-63
2020/12/22 12:46:25;;;;;;;0.70;0.70;;;14.60;99.90;;;;;;4941119;29;20440;-62
2020/12/22 12:48:54;;;;;;;0.70;0.70;;;14.60;99.90;;;;;;4939793;29;20495;-62
2020/12/22 12:51:20;;;;;;;0.70;0.70;;;14.70;99.90;;;;;;4939672;29;21030;-62
2020/12/22 12:53:47;;;;;;;0.60;0.60;;;14.70;99.90;;;;;;4939974;29;20484;-63
2020/12/22 12:56:14;;;;;;;0.47;0.47;;;14.80;99.90;;;;;;4939949;29;20483;-63
2020/12/22 12:58:41;;;;;;;0.73;0.73;;;14.80;99.90;;;;;;4939900;29;20460;-63
2020/12/22 13:01:09;;;;;;;0.43;0.43;;;14.70;99.90;;;;;;4940540;29;20467;-63
2020/12/22 13:03:35;;;;;;;0.60;0.60;;;14.70;99.90;;;;;;4939982;29;20487;-62
2020/12/22 13:06:02;;;;;;;0.40;0.40;;;14.70;99.90;;;;;;4939682;29;20488;-63
2020/12/22 13:08:29;;;;;;;0.40;0.40;;;14.70;99.90;;;;;;4938927;29;20460;-62
2020/12/22 13:10:55;;;;;;;0.60;0.60;;;14.60;99.90;;;;;;4938008;29;20955;-63
2020/12/22 13:13:21;;;;;;;0.60;0.60;;;14.50;99.90;;;;;;4938909;29;20535;-63
2020/12/22 13:15:48;;;;;;;1.27;0.50;;;14.40;99.90;;;;;;4939023;29;20456;-63
2020/12/22 13:18:14;;;;;;;0.40;0.40;;;14.40;99.90;;;;;;4938859;29;20619;-63
2020/12/22 13:20:40;;;;;;;0.50;0.50;;;14.30;99.90;;;;;;4938920;29;20548;-63
2020/12/22 13:23:07;;;;;;;0.50;0.50;;;14.30;99.90;;;;;;4941355;29;20500;-63
2020/12/22 13:25:34;;;;;;;0.77;0.53;;;14.40;99.90;;;;;;4939055;29;20464;-63
2020/12/22 13:28:00;;;;;;;0.57;0.57;;;14.40;99.90;;;;;;4938654;29;20488;-63
2020/12/22 13:30:26;;;;;;;0.60;0.60;;;14.30;99.90;;;;;;4939402;29;20471;-63
2020/12/22 13:32:52;;;;;;;0.77;0.77;;;14.20;99.90;;;;;;4939010;29;20473;-62
2020/12/22 13:35:18;;;;;;;0.60;0.60;;;14.10;99.90;;;;;;4938974;29;21015;-63
2020/12/22 13:37:45;;;;;;;0.70;0.70;;;14.20;99.90;;;;;;4938371;29;20487;-63
2020/12/22 13:40:12;;;;;;;0.50;0.50;;;14.10;99.90;;;;;;4939277;29;20838;-64
2020/12/22 13:42:38;;;;;;;0.50;0.50;;;14.10;99.90;;;;;;4938747;29;20484;-63
2020/12/22 13:45:05;;;;;;;3.03;0.70;;;14.10;99.90;;;;;;4938811;29;20464;-63
2020/12/22 13:47:31;;;;;;;3.13;0.60;;;14.10;99.90;;;;;;4938715;29;20460;-63
2020/12/22 13:49:57;;;;;;;0.77;0.77;;;14.10;99.90;;;;;;4938540;29;20834;-62
2020/12/22 13:52:23;;;;;;;0.60;0.60;;;14.10;99.90;;;;;;4939708;29;20461;-63
2020/12/22 13:54:49;;;;;;;0.50;0.50;;;14.00;99.90;;;;;;4938354;29;21030;-63
2020/12/22 13:57:16;;;;;;;0.50;0.50;;;14.00;99.90;;;;;;4938834;29;20457;-63
2020/12/22 13:59:42;;;;;;;0.70;0.70;;;14.00;99.90;;;;;;4939788;29;20963;-63
2020/12/22 14:02:09;;;;;;;0.97;0.70;;;14.00;99.90;;;;;;4938267;29;20480;-63
2020/12/22 14:04:35;;;;;;;0.70;0.70;;;14.00;99.90;;;;;;4938430;29;20452;-63
2020/12/22 14:07:01;;;;;;;0.70;0.70;;;14.00;99.90;;;;;;4938104;29;20472;-63
2020/12/22 14:09:27;;;;;;;1.10;0.70;;;13.90;99.90;;;;;;4939125;29;20464;-62
2020/12/22 14:11:54;;;;;;;0.73;0.73;;;14.00;99.90;;;;;;4940993;29;20543;-63
2020/12/22 14:14:21;;;;;;;0.70;0.70;;;14.00;99.90;;;;;;4938160;29;20512;-63
2020/12/22 14:16:50;;;;;;;0.63;0.63;;;14.00;99.90;;;;;;4937691;29;20452;-63
2020/12/22 14:19:18;;;;;;;1.23;0.53;;;14.00;99.90;;;;;;4937865;29;20460;-62
2020/12/22 14:21:46;;;;;;;0.63;0.63;;;13.90;99.90;;;;;;4937156;29;20555;-62
2020/12/22 14:24:12;;;;;;;0.73;0.73;;;13.90;99.90;;;;;;4937653;29;20528;-62
2020/12/22 14:26:39;;;;;;;1.53;0.67;;;13.90;99.90;;;;;;4937280;29;20771;-62
2020/12/22 14:29:05;;;;;;;1.17;0.70;;;13.90;99.90;;;;;;4937422;29;20460;-63
2020/12/22 14:31:34;;;;;;;0.70;0.70;;;14.00;99.90;;;;;;4937470;29;20460;-63
2020/12/22 14:34:00;;;;;;;0.60;0.60;;;13.90;99.90;;;;;;4937489;29;20556;-62
2020/12/22 14:36:26;;;;;;;0.70;0.70;;;14.00;99.90;;;;;;4937497;29;20467;-62
2020/12/22 14:38:52;;;;;;;0.90;0.90;;;14.00;99.90;;;;;;4937436;29;20463;-62
2020/12/22 14:41:19;;;;;;;0.90;0.60;;;14.10;99.90;;;;;;4937565;29;20820;-62
2020/12/22 14:43:45;;;;;;;0.60;0.60;;;14.10;99.90;;;;;;4936899;29;20487;-62
2020/12/22 14:46:14;;;;;;;0.53;0.53;;;14.00;99.90;;;;;;4937339;29;20488;-62
2020/12/22 14:48:42;;;;;;;0.60;0.60;;;14.00;99.90;;;;;;4937546;29;20500;-62
2020/12/22 14:51:08;;;;;;;0.60;0.60;;;13.90;99.90;;;;;;4937798;29;20459;-62
2020/12/22 14:53:34;;;;;;;0.60;0.60;;;13.90;99.90;;;;;;4937375;29;20531;-61
2020/12/22 14:56:01;;;;;;;1.50;0.90;;;14.00;99.90;;;;;;4937058;29;20492;-63
2020/12/22 14:58:27;;;;;;;1.33;0.70;;;13.90;99.90;;;;;;4936964;29;20472;-63
2020/12/22 15:00:54;;;;;;;0.70;0.70;;;14.00;99.90;;;;;;4936985;29;20467;-62
2020/12/22 15:03:20;;;;;;;0.70;0.70;;;14.00;99.90;;;;;;4936896;29;20491;-63
2020/12/22 15:05:47;;;;;;;1.07;0.73;;;14.00;99.90;;;;;;4937236;29;20449;-63
2020/12/22 15:08:13;;;;;;;1.83;0.80;;;14.10;99.90;;;;;;4937221;29;20461;-63
2020/12/22 15:10:39;;;;;;;2.20;1.13;;;14.00;99.90;;;;;;4937067;29;20456;-63
2020/12/22 15:13:06;;;;;;;0.70;0.70;;;14.10;99.90;;;;;;4937450;29;20472;-62
2020/12/22 15:15:32;;;;;;;1.53;0.80;;;14.10;99.90;;;;;;4936917;29;20461;-62
2020/12/22 15:17:58;;;;;;;1.80;0.90;;;14.10;99.90;;;;;;4937206;29;20484;-63
2020/12/22 15:20:24;;;;;;;0.70;0.70;;;14.10;99.90;;;;;;4937083;29;20463;-62
2020/12/22 15:22:51;;;;;;;0.73;0.73;;;14.10;99.90;;;;;;4945184;29;20890;-62
2020/12/22 15:25:18;;;;;;;1.17;1.07;;;14.10;99.90;;;;;;4958552;29;20480;-62
2020/12/22 15:27:44;;;;;;;0.80;0.80;;;14.10;99.90;;;;;;4955933;29;20476;-62
2020/12/22 15:30:12;;;;;;;0.60;0.60;;;14.00;99.90;;;;;;4957239;29;20441;-62
2020/12/22 15:32:38;;;;;;;0.60;0.60;;;14.00;99.90;;;;;;4955448;29;20539;-62
2020/12/22 15:35:04;;;;;;;0.77;0.77;;;14.00;99.90;;;;;;4959954;29;20452;-63
2020/12/22 15:37:31;;;;;;;1.30;0.70;;;13.90;99.90;;;;;;4961777;29;20452;-63
2020/12/22 15:39:58;;;;;;;0.80;0.80;;;13.90;99.90;;;;;;4959323;29;20456;-63
2020/12/22 15:42:24;;;;;;;0.70;0.70;;;13.80;99.90;;;;;;4960456;29;20475;-63
2020/12/22 15:44:54;;;;;;;0.83;0.83;;;13.80;99.90;;;;;;4961681;29;20460;-62
2020/12/22 15:47:21;;;;;;;1.40;0.87;;;13.80;99.90;;;;;;4948296;29;20496;-61
2020/12/22 15:49:47;;;;;;;1.17;0.60;;;13.80;99.90;;;;;;4955407;28;20443;-62
2020/12/22 15:52:13;;;;;;;1.73;1.27;;;13.70;99.90;;;;;;4964389;28;20444;-63
2020/12/22 15:54:40;;;;;;;3.07;1.00;;;13.80;99.90;;;;;;4963793;28;20515;-62
2020/12/22 15:57:07;;;;;;;0.90;0.90;;;13.80;99.90;;;;;;4964312;28;20444;-63
2020/12/22 15:59:33;;;;;;;1.90;0.80;;;13.90;99.90;;;;;;4964413;28;20452;-62
2020/12/22 16:01:59;;;;;;;0.80;0.80;;;13.80;99.90;;;;;;4961940;29;20449;-62
2020/12/22 16:04:25;;;;;;;0.70;0.70;;;13.80;99.90;;;;;;4962207;28;20463;-62
2020/12/22 16:06:52;;;;;;;1.10;1.07;;;13.80;99.90;;;;;;4959633;29;20896;-63
2020/12/22 16:09:18;;;;;;;0.70;0.70;;;13.80;99.90;;;;;;4952644;29;20511;-62
2020/12/22 16:11:45;;;;;;;0.90;0.90;;;13.70;99.90;;;;;;4946231;29;20496;-62
2020/12/22 16:14:12;;;;;;;0.83;0.80;;;13.70;99.90;;;;;;4941776;29;20856;-64
2020/12/22 16:16:42;;;;;;;1.80;1.00;;;13.80;99.90;;;;;;4941371;29;20460;-62
2020/12/22 16:19:09;;;;;;;0.87;0.87;;;13.70;99.90;;;;;;4942666;29;20484;-62
2020/12/22 16:21:35;;;;;;;0.97;0.97;;;13.80;99.90;;;;;;4941615;29;20457;-62
2020/12/22 16:24:02;;;;;;;1.13;1.13;;;13.70;99.90;;;;;;4940903;29;20484;-63
2020/12/22 16:26:28;;;;;;;3.50;1.00;;;13.70;99.90;;;;;;4941135;29;20819;-64
2020/12/22 16:28:54;;;;;;;0.60;0.60;;;13.70;99.90;;;;;;4939917;29;20483;-63
2020/12/22 16:31:21;;;;;;;0.73;0.73;;;13.70;99.90;;;;;;4940473;29;20456;-63
2020/12/22 16:33:47;;;;;;;1.27;0.80;;;13.80;99.90;;;;;;4940519;29;20479;-63
2020/12/22 16:36:19;;;;;;;0.90;0.90;;;13.80;99.90;;;;;;4940729;29;20459;-63
2020/12/22 16:38:45;;;;;;;0.90;0.90;;;13.80;99.90;;;;;;4939739;29;20440;-63
2020/12/22 16:41:13;;;;;;;1.10;1.10;;;13.80;99.90;;;;;;4939483;29;20460;-63
2020/12/22 16:43:39;;;;;;;1.23;1.00;;;13.90;99.90;;;;;;4939404;29;20484;-62
2020/12/22 16:46:08;;;;;;;1.20;1.03;;;13.90;99.90;;;;;;4939646;29;20456;-64
2020/12/22 16:48:36;;;;;;;1.40;1.30;;;13.80;99.90;;;;;;4939421;29;20464;-63
2020/12/22 16:51:02;;;;;;;1.07;1.07;;;13.80;99.90;;;;;;4939651;29;20460;-63
2020/12/22 16:53:28;;;;;;;1.10;1.10;;;13.80;99.90;;;;;;4939160;29;20979;-63
2020/12/22 16:55:54;;;;;;;2.43;1.00;;;13.90;99.90;;;;;;4939493;29;20464;-63
2020/12/22 16:58:20;;;;;;;2.17;1.60;;;13.90;99.90;;;;;;4939313;29;20456;-63
2020/12/22 17:00:47;;;;;;;1.70;1.60;;;14.00;99.90;;;;;;4939320;29;20523;-63
2020/12/22 17:03:13;;;;;;;0.80;0.80;;;14.00;99.90;;;;;;4939782;29;20515;-64
2020/12/22 17:05:40;;;;;;;1.03;1.03;;;14.00;99.90;;;;;;4939220;29;20456;-64
2020/12/22 17:08:06;;;;;;;2.30;1.10;;;14.10;99.90;;;;;;4939669;29;20507;-63
2020/12/22 17:10:32;;;;;;;1.00;1.00;;;14.10;99.90;;;;;;4939984;29;20964;-64
2020/12/22 17:12:58;;;;;;;0.87;0.87;;;14.10;99.90;;;;;;4940433;29;20480;-63
2020/12/22 17:15:24;;;;;;;3.80;1.30;;;14.10;99.90;;;;;;4959252;29;20516;-63
2020/12/22 17:17:51;;;;;;;0.90;0.90;;;14.20;99.90;;;;;;4962573;29;20428;-64
2020/12/22 17:20:17;;;;;;;0.93;0.93;;;14.30;99.90;;;;;;4962641;28;20453;-63
2020/12/22 17:22:44;;;;;;;1.27;1.13;;;14.30;99.90;;;;;;4947981;28;20481;-64
2020/12/22 17:25:10;;;;;;;1.67;1.40;;;14.30;99.90;;;;;;4939684;29;20463;-64
2020/12/22 17:27:36;;;;;;;2.57;1.27;;;14.30;99.90;;;;;;4939362;29;20468;-63
2020/12/22 17:30:03;;;;;;;1.47;1.37;;;14.20;99.90;;;;;;4939387;29;20975;-64
2020/12/22 17:32:30;;;;;;;1.30;1.20;;;14.20;99.90;;;;;;4939069;29;20538;-64
2020/12/22 17:34:56;;;;;;;1.63;1.53;;;14.30;99.90;;;;;;4939442;29;20460;-64
2020/12/22 17:37:22;;;;;;;2.57;1.87;;;14.20;99.90;;;;;;4939053;29;20547;-64
2020/12/22 17:39:49;;;;;;;1.20;1.10;;;14.20;99.90;;;;;;4938567;29;20496;-64
2020/12/22 17:42:16;;;;;;;1.67;1.53;;;14.20;99.90;;;;;;4939054;29;20468;-63
2020/12/22 17:44:42;;;;;;;1.30;1.30;;;14.20;99.90;;;;;;4938975;29;21022;-64
2020/12/22 17:47:08;;;;;;;1.60;1.60;;;14.20;99.90;;;;;;4938967;29;20467;-63
2020/12/22 17:49:34;;;;;;;1.40;1.20;;;14.20;99.90;;;;;;4938496;29;20535;-64
2020/12/22 17:52:00;;;;;;;2.40;1.30;;;14.20;99.90;;;;;;4938616;29;20456;-65